sensor_id;sensor_type;location;lat;lon;timestamp;pressure;altitude;pressure_sealevel;temperature
11424;BMP180;5768;51.476;7.210;2024-01-30T00:03:23;101373.00;;;12.30
11424;BMP180;5768;51.476;7.210;2024-01-30T00:08:26;101371.00;;;12.30
11424;BMP180;5768;51.476;7.210;2024-01-30T00:13:28;101370.00;;;12.20
11424;BMP180;5768;51.476;7.210;2024-01-30T00:18:31;101372.00;;;12.20
11424;BMP180;5768;51.476;7.210;2024-01-30T00:23:33;101356.00;;;12.30
11424;BMP180;5768;51.476;7.210;2024-01-30T00:28:35;101362.00;;;12.30
11424;BMP180;5768;51.476;7.210;2024-01-30T00:33:39;101346.00;;;12.30
11424;BMP180;5768;51.476;7.210;2024-01-30T00:38:41;101346.00;;;12.40
11424;BMP180;5768;51.476;7.210;2024-01-30T00:43:43;101357.00;;;12.40
11424;BMP180;5768;51.476;7.210;2024-01-30T00:48:47;101345.00;;;12.40
11424;BMP180;5768;51.476;7.210;2024-01-30T00:53:49;101344.00;;;12.40
11424;BMP180;5768;51.476;7.210;2024-01-30T00:58:51;101347.00;;;12.40
11424;BMP180;5768;51.476;7.210;2024-01-30T01:03:55;101347.00;;;12.40
11424;BMP180;5768;51.476;7.210;2024-01-30T01:08:57;101344.00;;;12.40
11424;BMP180;5768;51.476;7.210;2024-01-30T01:13:59;101338.00;;;12.30
11424;BMP180;5768;51.476;7.210;2024-01-30T01:19:03;101339.00;;;12.30
11424;BMP180;5768;51.476;7.210;2024-01-30T01:24:05;101331.00;;;12.30
11424;BMP180;5768;51.476;7.210;2024-01-30T01:29:07;101337.00;;;12.30
11424;BMP180;5768;51.476;7.210;2024-01-30T01:34:14;101337.00;;;12.20
11424;BMP180;5768;51.476;7.210;2024-01-30T01:39:16;101334.00;;;12.20
11424;BMP180;5768;51.476;7.210;2024-01-30T01:44:19;101350.00;;;12.20
11424;BMP180;5768;51.476;7.210;2024-01-30T01:49:24;101335.00;;;12.20
11424;BMP180;5768;51.476;7.210;2024-01-30T01:54:28;101342.00;;;12.20
11424;BMP180;5768;51.476;7.210;2024-01-30T01:59:31;101330.00;;;12.20
11424;BMP180;5768;51.476;7.210;2024-01-30T02:04:35;101321.00;;;12.10
11424;BMP180;5768;51.476;7.210;2024-01-30T02:09:37;101311.00;;;12.10
11424;BMP180;5768;51.476;7.210;2024-01-30T02:14:45;101316.00;;;12.10
11424;BMP180;5768;51.476;7.210;2024-01-30T02:19:48;101311.00;;;12.10
11424;BMP180;5768;51.476;7.210;2024-01-30T02:24:52;101309.00;;;12.00
11424;BMP180;5768;51.476;7.210;2024-01-30T02:29:54;101314.00;;;12.00
11424;BMP180;5768;51.476;7.210;2024-01-30T02:34:56;101310.00;;;12.00
11424;BMP180;5768;51.476;7.210;2024-01-30T02:40:00;101302.00;;;12.00
11424;BMP180;5768;51.476;7.210;2024-01-30T02:45:02;101303.00;;;12.00
11424;BMP180;5768;51.476;7.210;2024-01-30T02:50:05;101290.00;;;12.00
11424;BMP180;5768;51.476;7.210;2024-01-30T02:55:09;101289.00;;;12.00
11424;BMP180;5768;51.476;7.210;2024-01-30T03:00:13;101276.00;;;12.00
11424;BMP180;5768;51.476;7.210;2024-01-30T03:05:15;101276.00;;;12.00
11424;BMP180;5768;51.476;7.210;2024-01-30T03:10:19;101268.00;;;12.00
11424;BMP180;5768;51.476;7.210;2024-01-30T03:15:21;101269.00;;;12.10
11424;BMP180;5768;51.476;7.210;2024-01-30T03:20:24;101258.00;;;12.10
11424;BMP180;5768;51.476;7.210;2024-01-30T03:25:27;101267.00;;;12.10
11424;BMP180;5768;51.476;7.210;2024-01-30T03:30:29;101264.00;;;12.10
11424;BMP180;5768;51.476;7.210;2024-01-30T03:35:32;101262.00;;;12.10
11424;BMP180;5768;51.476;7.210;2024-01-30T03:40:35;101253.00;;;12.10
11424;BMP180;5768;51.476;7.210;2024-01-30T03:45:37;101257.00;;;12.10
11424;BMP180;5768;51.476;7.210;2024-01-30T03:50:39;101258.00;;;12.10
11424;BMP180;5768;51.476;7.210;2024-01-30T03:55:43;101258.00;;;12.10
11424;BMP180;5768;51.476;7.210;2024-01-30T04:00:45;101250.00;;;12.10
11424;BMP180;5768;51.476;7.210;2024-01-30T04:05:47;101251.00;;;12.10
11424;BMP180;5768;51.476;7.210;2024-01-30T04:10:51;101235.00;;;12.00
11424;BMP180;5768;51.476;7.210;2024-01-30T04:15:53;101247.00;;;12.00
11424;BMP180;5768;51.476;7.210;2024-01-30T04:20:56;101242.00;;;12.00
11424;BMP180;5768;51.476;7.210;2024-01-30T04:26:00;101227.00;;;12.00
11424;BMP180;5768;51.476;7.210;2024-01-30T04:31:02;101220.00;;;12.00
11424;BMP180;5768;51.476;7.210;2024-01-30T04:36:07;101222.00;;;12.00
11424;BMP180;5768;51.476;7.210;2024-01-30T04:41:11;101220.00;;;12.00
11424;BMP180;5768;51.476;7.210;2024-01-30T04:46:13;101220.00;;;12.00
11424;BMP180;5768;51.476;7.210;2024-01-30T04:51:15;101219.00;;;12.00
11424;BMP180;5768;51.476;7.210;2024-01-30T04:56:19;101219.00;;;12.00
11424;BMP180;5768;51.476;7.210;2024-01-30T05:01:21;101222.00;;;12.10
11424;BMP180;5768;51.476;7.210;2024-01-30T05:06:26;101219.00;;;12.10
11424;BMP180;5768;51.476;7.210;2024-01-30T05:11:30;101220.00;;;12.10
11424;BMP180;5768;51.476;7.210;2024-01-30T05:16:33;101220.00;;;12.10
11424;BMP180;5768;51.476;7.210;2024-01-30T05:21:35;101219.00;;;12.10
11424;BMP180;5768;51.476;7.210;2024-01-30T05:26:38;101223.00;;;12.10
11424;BMP180;5768;51.476;7.210;2024-01-30T05:31:41;101211.00;;;12.10
11424;BMP180;5768;51.476;7.210;2024-01-30T05:36:43;101211.00;;;12.10
11424;BMP180;5768;51.476;7.210;2024-01-30T05:41:46;101219.00;;;12.00
11424;BMP180;5768;51.476;7.210;2024-01-30T05:46:48;101212.00;;;12.00
11424;BMP180;5768;51.476;7.210;2024-01-30T05:51:50;101217.00;;;12.00
11424;BMP180;5768;51.476;7.210;2024-01-30T05:56:54;101214.00;;;12.00
11424;BMP180;5768;51.476;7.210;2024-01-30T06:01:56;101215.00;;;12.00
11424;BMP180;5768;51.476;7.210;2024-01-30T06:06:58;101214.00;;;12.00
11424;BMP180;5768;51.476;7.210;2024-01-30T06:12:05;101210.00;;;12.00
11424;BMP180;5768;51.476;7.210;2024-01-30T06:17:07;101213.00;;;12.10
11424;BMP180;5768;51.476;7.210;2024-01-30T06:22:09;101218.00;;;12.20
11424;BMP180;5768;51.476;7.210;2024-01-30T06:27:13;101218.00;;;12.20
11424;BMP180;5768;51.476;7.210;2024-01-30T06:32:16;101212.00;;;12.30
11424;BMP180;5768;51.476;7.210;2024-01-30T06:37:18;101220.00;;;12.30
11424;BMP180;5768;51.476;7.210;2024-01-30T06:42:21;101215.00;;;12.30
11424;BMP180;5768;51.476;7.210;2024-01-30T06:47:23;101207.00;;;12.40
11424;BMP180;5768;51.476;7.210;2024-01-30T06:52:26;101203.00;;;12.50
11424;BMP180;5768;51.476;7.210;2024-01-30T06:57:29;101206.00;;;12.60
11424;BMP180;5768;51.476;7.210;2024-01-30T07:02:31;101213.00;;;12.60
11424;BMP180;5768;51.476;7.210;2024-01-30T07:07:33;101201.00;;;12.70
11424;BMP180;5768;51.476;7.210;2024-01-30T07:12:37;101210.00;;;12.70
11424;BMP180;5768;51.476;7.210;2024-01-30T07:17:39;101216.00;;;12.80
11424;BMP180;5768;51.476;7.210;2024-01-30T07:22:41;101225.00;;;12.80
11424;BMP180;5768;51.476;7.210;2024-01-30T07:27:45;101233.00;;;12.90
11424;BMP180;5768;51.476;7.210;2024-01-30T07:32:47;101247.00;;;13.00
11424;BMP180;5768;51.476;7.210;2024-01-30T07:37:50;101251.00;;;13.00
11424;BMP180;5768;51.476;7.210;2024-01-30T07:42:54;101241.00;;;13.10
11424;BMP180;5768;51.476;7.210;2024-01-30T07:47:56;101246.00;;;13.10
11424;BMP180;5768;51.476;7.210;2024-01-30T07:53:00;101246.00;;;13.10
11424;BMP180;5768;51.476;7.210;2024-01-30T07:58:04;101246.00;;;13.20
11424;BMP180;5768;51.476;7.210;2024-01-30T08:03:06;101248.00;;;13.20
11424;BMP180;5768;51.476;7.210;2024-01-30T08:08:09;101250.00;;;13.40
11424;BMP180;5768;51.476;7.210;2024-01-30T08:13:12;101265.00;;;13.50
11424;BMP180;5768;51.476;7.210;2024-01-30T08:18:14;101271.00;;;13.60
11424;BMP180;5768;51.476;7.210;2024-01-30T08:23:16;101267.00;;;13.70
11424;BMP180;5768;51.476;7.210;2024-01-30T08:28:21;101270.00;;;13.80
11424;BMP180;5768;51.476;7.210;2024-01-30T08:33:23;101259.00;;;13.90
11424;BMP180;5768;51.476;7.210;2024-01-30T08:38:25;101269.00;;;14.00
11424;BMP180;5768;51.476;7.210;2024-01-30T08:43:28;101266.00;;;14.00
11424;BMP180;5768;51.476;7.210;2024-01-30T08:48:31;101278.00;;;14.10
11424;BMP180;5768;51.476;7.210;2024-01-30T08:53:34;101279.00;;;14.20
11424;BMP180;5768;51.476;7.210;2024-01-30T08:58:38;101277.00;;;14.20
11424;BMP180;5768;51.476;7.210;2024-01-30T09:03:40;101283.00;;;14.30
11424;BMP180;5768;51.476;7.210;2024-01-30T09:08:44;101287.00;;;14.40
11424;BMP180;5768;51.476;7.210;2024-01-30T09:13:47;101291.00;;;14.50
11424;BMP180;5768;51.476;7.210;2024-01-30T09:18:50;101305.00;;;14.60
11424;BMP180;5768;51.476;7.210;2024-01-30T09:23:54;101302.00;;;14.60
11424;BMP180;5768;51.476;7.210;2024-01-30T09:29:04;101319.00;;;14.60
11424;BMP180;5768;51.476;7.210;2024-01-30T09:34:06;101327.00;;;14.60
11424;BMP180;5768;51.476;7.210;2024-01-30T09:39:09;101328.00;;;14.70
11424;BMP180;5768;51.476;7.210;2024-01-30T09:44:15;101320.00;;;14.80
11424;BMP180;5768;51.476;7.210;2024-01-30T09:49:18;101317.00;;;15.00
11424;BMP180;5768;51.476;7.210;2024-01-30T09:54:22;101311.00;;;15.00
11424;BMP180;5768;51.476;7.210;2024-01-30T09:59:26;101303.00;;;15.10
11424;BMP180;5768;51.476;7.210;2024-01-30T10:04:29;101306.00;;;15.20
11424;BMP180;5768;51.476;7.210;2024-01-30T10:09:32;101305.00;;;15.20
11424;BMP180;5768;51.476;7.210;2024-01-30T10:14:40;101314.00;;;15.10
11424;BMP180;5768;51.476;7.210;2024-01-30T10:19:42;101317.00;;;15.20
11424;BMP180;5768;51.476;7.210;2024-01-30T10:24:44;101315.00;;;15.40
11424;BMP180;5768;51.476;7.210;2024-01-30T10:29:50;101316.00;;;15.40
11424;BMP180;5768;51.476;7.210;2024-01-30T10:34:53;101313.00;;;15.50
11424;BMP180;5768;51.476;7.210;2024-01-30T10:40:00;101324.00;;;15.70
11424;BMP180;5768;51.476;7.210;2024-01-30T10:45:09;101325.00;;;15.90
11424;BMP180;5768;51.476;7.210;2024-01-30T10:50:13;101328.00;;;16.30
11424;BMP180;5768;51.476;7.210;2024-01-30T10:55:17;101337.00;;;16.50
11424;BMP180;5768;51.476;7.210;2024-01-30T11:00:22;101331.00;;;16.50
11424;BMP180;5768;51.476;7.210;2024-01-30T11:05:25;101345.00;;;16.60
11424;BMP180;5768;51.476;7.210;2024-01-30T11:10:29;101334.00;;;16.60
11424;BMP180;5768;51.476;7.210;2024-01-30T11:15:37;101336.00;;;16.80
11424;BMP180;5768;51.476;7.210;2024-01-30T11:20:47;101341.00;;;16.80
11424;BMP180;5768;51.476;7.210;2024-01-30T11:25:53;101333.00;;;16.90
11424;BMP180;5768;51.476;7.210;2024-01-30T11:31:05;101340.00;;;16.80
11424;BMP180;5768;51.476;7.210;2024-01-30T11:36:08;101333.00;;;16.60
11424;BMP180;5768;51.476;7.210;2024-01-30T11:41:14;101335.00;;;16.60
11424;BMP180;5768;51.476;7.210;2024-01-30T11:46:18;101335.00;;;16.40
11424;BMP180;5768;51.476;7.210;2024-01-30T11:51:20;101335.00;;;16.40
11424;BMP180;5768;51.476;7.210;2024-01-30T11:56:24;101357.00;;;16.30
11424;BMP180;5768;51.476;7.210;2024-01-30T12:01:29;101359.00;;;16.30
11424;BMP180;5768;51.476;7.210;2024-01-30T12:06:32;101343.00;;;16.20
11424;BMP180;5768;51.476;7.210;2024-01-30T12:11:44;101367.00;;;16.20
11424;BMP180;5768;51.476;7.210;2024-01-30T12:16:49;101344.00;;;16.00
11424;BMP180;5768;51.476;7.210;2024-01-30T12:21:56;101348.00;;;15.90
11424;BMP180;5768;51.476;7.210;2024-01-30T12:27:00;101365.00;;;15.80
11424;BMP180;5768;51.476;7.210;2024-01-30T12:32:04;101352.00;;;15.80
11424;BMP180;5768;51.476;7.210;2024-01-30T12:37:06;101345.00;;;15.90
11424;BMP180;5768;51.476;7.210;2024-01-30T12:42:09;101356.00;;;15.90
11424;BMP180;5768;51.476;7.210;2024-01-30T12:47:13;101350.00;;;15.80
11424;BMP180;5768;51.476;7.210;2024-01-30T12:52:17;101351.00;;;15.70
11424;BMP180;5768;51.476;7.210;2024-01-30T12:57:19;101340.00;;;15.80
11424;BMP180;5768;51.476;7.210;2024-01-30T13:02:23;101340.00;;;15.70
11424;BMP180;5768;51.476;7.210;2024-01-30T13:07:26;101333.00;;;15.80
11424;BMP180;5768;51.476;7.210;2024-01-30T13:12:28;101348.00;;;15.70
11424;BMP180;5768;51.476;7.210;2024-01-30T13:17:32;101345.00;;;15.60
11424;BMP180;5768;51.476;7.210;2024-01-30T13:22:34;101355.00;;;15.60
11424;BMP180;5768;51.476;7.210;2024-01-30T13:27:38;101352.00;;;15.60
11424;BMP180;5768;51.476;7.210;2024-01-30T13:32:41;101359.00;;;15.60
11424;BMP180;5768;51.476;7.210;2024-01-30T13:37:45;101360.00;;;15.50
11424;BMP180;5768;51.476;7.210;2024-01-30T13:42:48;101361.00;;;15.50
11424;BMP180;5768;51.476;7.210;2024-01-30T13:47:52;101368.00;;;15.50
11424;BMP180;5768;51.476;7.210;2024-01-30T13:52:54;101365.00;;;15.50
11424;BMP180;5768;51.476;7.210;2024-01-30T13:57:57;101369.00;;;15.40
11424;BMP180;5768;51.476;7.210;2024-01-30T14:03:00;101358.00;;;15.30
11424;BMP180;5768;51.476;7.210;2024-01-30T14:08:04;101355.00;;;15.30
11424;BMP180;5768;51.476;7.210;2024-01-30T14:13:08;101367.00;;;15.30
11424;BMP180;5768;51.476;7.210;2024-01-30T14:18:11;101367.00;;;15.20
11424;BMP180;5768;51.476;7.210;2024-01-30T14:23:14;101362.00;;;15.30
11424;BMP180;5768;51.476;7.210;2024-01-30T14:28:17;101355.00;;;15.40
11424;BMP180;5768;51.476;7.210;2024-01-30T14:33:20;101361.00;;;15.50
11424;BMP180;5768;51.476;7.210;2024-01-30T14:38:22;101371.00;;;15.60
11424;BMP180;5768;51.476;7.210;2024-01-30T14:43:25;101366.00;;;15.50
11424;BMP180;5768;51.476;7.210;2024-01-30T14:48:29;101381.00;;;15.40
11424;BMP180;5768;51.476;7.210;2024-01-30T14:53:31;101375.00;;;15.30
11424;BMP180;5768;51.476;7.210;2024-01-30T14:58:34;101381.00;;;15.30
11424;BMP180;5768;51.476;7.210;2024-01-30T15:03:38;101381.00;;;15.10
11424;BMP180;5768;51.476;7.210;2024-01-30T15:08:40;101394.00;;;15.00
11424;BMP180;5768;51.476;7.210;2024-01-30T15:13:43;101388.00;;;14.90
11424;BMP180;5768;51.476;7.210;2024-01-30T15:18:46;101401.00;;;14.90
11424;BMP180;5768;51.476;7.210;2024-01-30T15:23:48;101416.00;;;14.90
11424;BMP180;5768;51.476;7.210;2024-01-30T15:28:51;101416.00;;;14.90
11424;BMP180;5768;51.476;7.210;2024-01-30T15:33:55;101424.00;;;14.80
11424;BMP180;5768;51.476;7.210;2024-01-30T15:38:58;101440.00;;;14.80
11424;BMP180;5768;51.476;7.210;2024-01-30T15:44:00;101440.00;;;14.80
11424;BMP180;5768;51.476;7.210;2024-01-30T15:49:04;101449.00;;;14.70
11424;BMP180;5768;51.476;7.210;2024-01-30T15:54:08;101463.00;;;14.60
11424;BMP180;5768;51.476;7.210;2024-01-30T15:59:10;101458.00;;;14.50
11424;BMP180;5768;51.476;7.210;2024-01-30T16:04:14;101477.00;;;14.50
11424;BMP180;5768;51.476;7.210;2024-01-30T16:09:16;101489.00;;;14.40
11424;BMP180;5768;51.476;7.210;2024-01-30T16:14:18;101480.00;;;14.20
11424;BMP180;5768;51.476;7.210;2024-01-30T16:19:22;101474.00;;;14.10
11424;BMP180;5768;51.476;7.210;2024-01-30T16:24:24;101499.00;;;14.00
11424;BMP180;5768;51.476;7.210;2024-01-30T16:29:27;101491.00;;;13.90
11424;BMP180;5768;51.476;7.210;2024-01-30T16:34:30;101511.00;;;13.90
11424;BMP180;5768;51.476;7.210;2024-01-30T16:39:32;101512.00;;;13.90
11424;BMP180;5768;51.476;7.210;2024-01-30T16:44:35;101527.00;;;13.80
11424;BMP180;5768;51.476;7.210;2024-01-30T16:49:38;101540.00;;;13.70
11424;BMP180;5768;51.476;7.210;2024-01-30T16:54:40;101544.00;;;13.60
11424;BMP180;5768;51.476;7.210;2024-01-30T16:59:43;101549.00;;;13.40
11424;BMP180;5768;51.476;7.210;2024-01-30T17:04:46;101567.00;;;13.30
11424;BMP180;5768;51.476;7.210;2024-01-30T17:09:50;101569.00;;;13.30
11424;BMP180;5768;51.476;7.210;2024-01-30T17:14:52;101578.00;;;13.40
11424;BMP180;5768;51.476;7.210;2024-01-30T17:19:56;101580.00;;;13.40
11424;BMP180;5768;51.476;7.210;2024-01-30T17:24:58;101585.00;;;13.30
11424;BMP180;5768;51.476;7.210;2024-01-30T17:30:00;101593.00;;;13.40
11424;BMP180;5768;51.476;7.210;2024-01-30T17:35:04;101595.00;;;13.40
11424;BMP180;5768;51.476;7.210;2024-01-30T17:40:08;101608.00;;;13.30
11424;BMP180;5768;51.476;7.210;2024-01-30T17:45:11;101626.00;;;13.20
11424;BMP180;5768;51.476;7.210;2024-01-30T17:50:14;101629.00;;;13.30
11424;BMP180;5768;51.476;7.210;2024-01-30T17:55:17;101635.00;;;13.30
11424;BMP180;5768;51.476;7.210;2024-01-30T18:00:19;101642.00;;;13.20
11424;BMP180;5768;51.476;7.210;2024-01-30T18:05:24;101662.00;;;13.10
11424;BMP180;5768;51.476;7.210;2024-01-30T18:10:26;101661.00;;;13.00
11424;BMP180;5768;51.476;7.210;2024-01-30T18:15:31;101682.00;;;12.80
11424;BMP180;5768;51.476;7.210;2024-01-30T18:20:35;101665.00;;;12.60
11424;BMP180;5768;51.476;7.210;2024-01-30T18:25:37;101673.00;;;12.50
11424;BMP180;5768;51.476;7.210;2024-01-30T18:30:39;101672.00;;;12.50
11424;BMP180;5768;51.476;7.210;2024-01-30T18:35:43;101660.00;;;12.40
11424;BMP180;5768;51.476;7.210;2024-01-30T18:40:46;101673.00;;;12.40
11424;BMP180;5768;51.476;7.210;2024-01-30T18:45:52;101679.00;;;12.40
11424;BMP180;5768;51.476;7.210;2024-01-30T18:50:57;101691.00;;;12.40
11424;BMP180;5768;51.476;7.210;2024-01-30T18:56:00;101696.00;;;12.30
11424;BMP180;5768;51.476;7.210;2024-01-30T19:01:03;101701.00;;;12.30
11424;BMP180;5768;51.476;7.210;2024-01-30T19:06:07;101708.00;;;12.30
11424;BMP180;5768;51.476;7.210;2024-01-30T19:11:17;101705.00;;;12.30
11424;BMP180;5768;51.476;7.210;2024-01-30T19:16:20;101719.00;;;12.40
11424;BMP180;5768;51.476;7.210;2024-01-30T19:21:23;101715.00;;;12.30
11424;BMP180;5768;51.476;7.210;2024-01-30T19:26:25;101723.00;;;12.30
11424;BMP180;5768;51.476;7.210;2024-01-30T19:31:28;101729.00;;;12.30
11424;BMP180;5768;51.476;7.210;2024-01-30T19:36:31;101728.00;;;12.30
11424;BMP180;5768;51.476;7.210;2024-01-30T19:41:34;101727.00;;;12.30
11424;BMP180;5768;51.476;7.210;2024-01-30T19:46:36;101741.00;;;12.20
11424;BMP180;5768;51.476;7.210;2024-01-30T19:51:40;101743.00;;;12.20
11424;BMP180;5768;51.476;7.210;2024-01-30T19:56:42;101750.00;;;12.10
11424;BMP180;5768;51.476;7.210;2024-01-30T20:01:45;101760.00;;;12.00
11424;BMP180;5768;51.476;7.210;2024-01-30T20:06:48;101760.00;;;12.00
11424;BMP180;5768;51.476;7.210;2024-01-30T20:11:50;101755.00;;;12.00
11424;BMP180;5768;51.476;7.210;2024-01-30T20:16:53;101778.00;;;11.90
11424;BMP180;5768;51.476;7.210;2024-01-30T20:21:56;101776.00;;;11.90
11424;BMP180;5768;51.476;7.210;2024-01-30T20:27:01;101787.00;;;11.90
11424;BMP180;5768;51.476;7.210;2024-01-30T20:32:04;101795.00;;;11.80
11424;BMP180;5768;51.476;7.210;2024-01-30T20:37:07;101792.00;;;11.80
11424;BMP180;5768;51.476;7.210;2024-01-30T20:42:11;101791.00;;;11.80
11424;BMP180;5768;51.476;7.210;2024-01-30T20:47:13;101798.00;;;11.70
11424;BMP180;5768;51.476;7.210;2024-01-30T20:52:16;101806.00;;;11.70
11424;BMP180;5768;51.476;7.210;2024-01-30T20:57:18;101804.00;;;11.70
11424;BMP180;5768;51.476;7.210;2024-01-30T21:02:21;101813.00;;;11.80
11424;BMP180;5768;51.476;7.210;2024-01-30T21:07:24;101813.00;;;11.70
11424;BMP180;5768;51.476;7.210;2024-01-30T21:12:26;101807.00;;;11.70
11424;BMP180;5768;51.476;7.210;2024-01-30T21:17:30;101815.00;;;11.60
11424;BMP180;5768;51.476;7.210;2024-01-30T21:22:33;101814.00;;;11.60
11424;BMP180;5768;51.476;7.210;2024-01-30T21:27:36;101809.00;;;11.50
11424;BMP180;5768;51.476;7.210;2024-01-30T21:32:39;101819.00;;;11.50
11424;BMP180;5768;51.476;7.210;2024-01-30T21:37:43;101810.00;;;11.50
11424;BMP180;5768;51.476;7.210;2024-01-30T21:42:45;101815.00;;;11.50
11424;BMP180;5768;51.476;7.210;2024-01-30T21:47:52;101812.00;;;11.50
11424;BMP180;5768;51.476;7.210;2024-01-30T21:52:55;101819.00;;;11.50
11424;BMP180;5768;51.476;7.210;2024-01-30T21:57:57;101831.00;;;11.50
11424;BMP180;5768;51.476;7.210;2024-01-30T22:03:00;101835.00;;;11.40
11424;BMP180;5768;51.476;7.210;2024-01-30T22:08:05;101825.00;;;11.50
11424;BMP180;5768;51.476;7.210;2024-01-30T22:13:07;101824.00;;;11.50
11424;BMP180;5768;51.476;7.210;2024-01-30T22:18:10;101823.00;;;11.50
11424;BMP180;5768;51.476;7.210;2024-01-30T22:23:14;101831.00;;;11.50
11424;BMP180;5768;51.476;7.210;2024-01-30T22:28:16;101837.00;;;11.50
11424;BMP180;5768;51.476;7.210;2024-01-30T22:33:18;101851.00;;;11.50
11424;BMP180;5768;51.476;7.210;2024-01-30T22:38:26;101855.00;;;11.40
11424;BMP180;5768;51.476;7.210;2024-01-30T22:43:28;101862.00;;;11.40
11424;BMP180;5768;51.476;7.210;2024-01-30T22:48:33;101862.00;;;11.40
11424;BMP180;5768;51.476;7.210;2024-01-30T22:53:36;101861.00;;;11.40
11424;BMP180;5768;51.476;7.210;2024-01-30T22:58:39;101870.00;;;11.40
11424;BMP180;5768;51.476;7.210;2024-01-30T23:03:41;101879.00;;;11.50
11424;BMP180;5768;51.476;7.210;2024-01-30T23:08:45;101880.00;;;11.40
11424;BMP180;5768;51.476;7.210;2024-01-30T23:13:47;101899.00;;;11.40
11424;BMP180;5768;51.476;7.210;2024-01-30T23:18:49;101903.00;;;11.30
11424;BMP180;5768;51.476;7.210;2024-01-30T23:23:53;101914.00;;;11.30
11424;BMP180;5768;51.476;7.210;2024-01-30T23:28:55;101913.00;;;11.00
11424;BMP180;5768;51.476;7.210;2024-01-30T23:33:59;101918.00;;;10.70
11424;BMP180;5768;51.476;7.210;2024-01-30T23:39:04;101926.00;;;10.60
11424;BMP180;5768;51.476;7.210;2024-01-30T23:44:06;101921.00;;;10.60
11424;BMP180;5768;51.476;7.210;2024-01-30T23:49:08;101908.00;;;10.50
11424;BMP180;5768;51.476;7.210;2024-01-30T23:54:13;101912.00;;;10.50
11424;BMP180;5768;51.476;7.210;2024-01-30T23:59:16;101913.00;;;10.50
